Jefferson, Maine
Current Conditions -  °F | °C
As of 12:43 PM on Wednesday 26 Nov 2014 (Local Time) from KAUG Reporting Station
Heavy Snow Heavy Snow  
Wind Chill: 25°   Ceiling: 1700
Heat Index: 33°   Visibility: 0.25mi
Dew Point: 28°   Wind: 10mph
Humidity: 82%   Direction: 40°NE
Pressure: 30.19"   Gusts: 21mph
Location:  44.21°N, 69.45°W
Report Text: KAUG 261743Z AUTO 04009G18KT 1/4SM +SN VV017 01/M02 A3019 RMK AO2 SNB29 P0000 T00061022
Loading
Personal Weather Stations






























Interactive Weather Map New forecast layout! Learn more

10-Day Weather Forecast

Advertisements
Track Severe Weather on mobile